createdAt,value
2023-02-03T00:13:18.066Z,100083.21
2023-02-03T00:28:43.917Z,100069.48
2023-02-03T00:44:10.284Z,100058.83
2023-02-03T00:59:36.431Z,100046.15
2023-02-03T01:15:02.681Z,100022.26
2023-02-03T01:30:12.571Z,99982.36
2023-02-03T01:45:21.400Z,99942.59
2023-02-03T02:00:47.558Z,99878.30
2023-02-03T02:16:14.021Z,99883.76
2023-02-03T02:31:43.757Z,99852.99
2023-02-03T02:47:12.236Z,99820.46
2023-02-03T03:02:22.086Z,99787.52
2023-02-03T03:17:50.002Z,99750.56
2023-02-03T03:33:15.927Z,99729.57
2023-02-03T03:48:48.272Z,99705.42
2023-02-03T04:04:14.759Z,99713.95
2023-02-03T04:19:24.453Z,99685.44
2023-02-03T04:34:50.754Z,99649.98
2023-02-03T04:50:17.087Z,99591.08
2023-02-03T05:05:43.188Z,99542.40
2023-02-03T05:21:09.708Z,99517.19
2023-02-03T05:36:18.228Z,99468.52
2023-02-03T05:51:57.082Z,99424.10
2023-02-03T06:07:23.309Z,99392.16
2023-02-03T06:22:49.485Z,99386.27
2023-02-03T06:38:15.896Z,99370.08
2023-02-03T06:53:41.946Z,99333.23
2023-02-03T07:09:08.642Z,99290.91
2023-02-03T07:24:17.836Z,99257.70
2023-02-03T07:39:26.937Z,99230.50
2023-02-03T07:54:53.003Z,99220.07
2023-02-03T08:10:19.863Z,99198.39
2023-02-03T08:25:46.562Z,99161.98
2023-02-03T08:41:12.887Z,99135.57
2023-02-03T08:56:39.205Z,99127.55
2023-02-03T09:12:05.804Z,99102.21
2023-02-03T09:27:32.549Z,99055.77
2023-02-03T09:43:00.951Z,99013.35
2023-02-03T09:58:27.093Z,98958.87
2023-02-03T10:13:58.937Z,98930.52
2023-02-03T10:29:29.230Z,98883.80
2023-02-03T10:44:58.431Z,98834.23
2023-02-03T11:00:25.947Z,98804.92
2023-02-03T11:15:55.599Z,98766.72
2023-02-03T11:31:22.957Z,98722.75
2023-02-03T11:46:49.776Z,98687.30
2023-02-03T12:02:36.817Z,98655.86
2023-02-03T12:18:06.709Z,98637.98
2023-02-03T12:33:34.324Z,98598.59
2023-02-03T12:49:01.835Z,98564.64
2023-02-03T13:22:28.180Z,98671.72
2023-02-03T13:37:45.618Z,98659.64
2023-02-03T13:52:58.111Z,98679.97
2023-02-03T14:08:20.279Z,98715.47
2023-02-03T14:23:31.212Z,98727.98
2023-02-03T14:38:40.480Z,98747.23
2023-02-03T14:54:06.241Z,98745.81
2023-02-03T15:28:28.979Z,98842.48
2023-02-03T15:43:58.677Z,98808.38
2023-02-03T15:59:28.237Z,98844.73
2023-02-03T16:14:57.453Z,98873.45
2023-02-03T16:30:45.323Z,98888.55
2023-02-03T16:46:31.851Z,98890.33
2023-02-03T17:02:02.453Z,98888.70
2023-02-03T17:17:32.187Z,98886.39
2023-02-03T17:32:41.959Z,98903.27
2023-02-03T18:03:57.710Z,98921.05
2023-02-03T18:19:26.710Z,98944.73
2023-02-03T18:34:55.606Z,98951.61
2023-02-03T18:50:26.187Z,98948.56
2023-02-03T19:05:55.994Z,98973.92
2023-02-03T19:21:25.329Z,98991.47
2023-02-03T19:36:54.981Z,98989.70
2023-02-03T19:52:24.223Z,98999.15
2023-02-03T20:07:56.477Z,99003.73
2023-02-03T20:23:26.337Z,99005.90
2023-02-03T20:38:55.982Z,99018.53
2023-02-03T20:54:26.621Z,99001.17
2023-02-03T21:09:57.013Z,99019.45
2023-02-03T21:25:29.704Z,99021.45
2023-02-03T21:41:10.425Z,99002.61
2023-02-03T21:56:41.028Z,98994.66
2023-02-03T22:12:10.446Z,99006.92
2023-02-03T22:27:39.160Z,99015.52
2023-02-03T22:43:08.755Z,98995.55
2023-02-03T22:58:37.591Z,98980.61
2023-02-03T23:14:06.841Z,98993.45
2023-02-03T23:29:38.220Z,99068.31
2023-02-03T23:45:59.653Z,99140.27
